Time;durP1;ratioP1;P1;durP2;ratioP2;P2;SDS_P1;SDS_P2;PMS_P1;PMS_P2;Temp;Humidity;BMP_temperature;BMP_pressure;BME280_temperature;BME280_humidity;BME280_pressure;Samples;Min_cycle;Max_cycle;Signal;HPM_P1;HPM_P2
2022/01/22 00:00:48;;;;;;;6.78;2.78;;;2.40;73.80;;;;;;4997277;28;20621;-69
2022/01/22 00:03:14;;;;;;;3.55;1.85;;;2.40;73.80;;;;;;4997847;28;21863;-69
2022/01/22 00:05:40;;;;;;;4.85;2.00;;;2.40;73.80;;;;;;4999913;28;20441;-68
2022/01/22 00:08:07;;;;;;;3.92;1.95;;;2.50;73.80;;;;;;4999270;28;20044;-68
2022/01/22 00:10:34;;;;;;;7.20;2.10;;;2.40;73.70;;;;;;4996194;28;20084;-68
2022/01/22 00:15:26;;;;;;;10.07;2.33;;;2.40;73.80;;;;;;4992809;28;20042;-68
2022/01/22 00:17:52;;;;;;;2.88;2.22;;;2.40;73.80;;;;;;4997935;28;20077;-68
2022/01/22 00:20:21;;;;;;;4.45;2.47;;;2.40;73.60;;;;;;4997664;28;20041;-68
2022/01/22 00:22:47;;;;;;;5.72;2.33;;;2.50;73.80;;;;;;4996363;28;20030;-68
2022/01/22 00:25:15;;;;;;;5.55;2.67;;;2.50;73.70;;;;;;4999250;28;20041;-68
2022/01/22 00:27:44;;;;;;;8.27;2.60;;;2.50;73.60;;;;;;4999549;28;20041;-68
2022/01/22 00:30:15;;;;;;;6.40;2.55;;;2.50;73.60;;;;;;4996418;28;20045;-69
2022/01/22 00:32:41;;;;;;;8.15;2.50;;;2.50;73.60;;;;;;4999571;28;20034;-69
2022/01/22 00:35:07;;;;;;;7.43;2.92;;;2.50;73.60;;;;;;4997814;28;20026;-68
2022/01/22 00:37:35;;;;;;;4.85;2.60;;;2.50;73.60;;;;;;5006402;28;20490;-68
2022/01/22 00:40:03;;;;;;;4.60;2.60;;;2.50;73.60;;;;;;4998355;28;20566;-69
2022/01/22 00:42:31;;;;;;;5.63;2.50;;;2.50;73.60;;;;;;5005772;28;20099;-69
2022/01/22 00:44:56;;;;;;;4.25;2.40;;;2.60;73.70;;;;;;4999615;28;20034;-68
2022/01/22 00:47:22;;;;;;;5.38;2.45;;;2.60;73.60;;;;;;4994042;28;20034;-68
2022/01/22 00:49:47;;;;;;;5.30;2.38;;;2.60;73.60;;;;;;4999400;28;20412;-67
2022/01/22 00:52:13;;;;;;;6.30;2.70;;;2.60;73.50;;;;;;4995026;28;20121;-68
2022/01/22 00:54:39;;;;;;;4.70;2.30;;;2.60;73.40;;;;;;4996285;28;20116;-68
2022/01/22 00:57:04;;;;;;;6.70;2.83;;;2.60;73.40;;;;;;4994913;28;20092;-68
2022/01/22 00:59:30;;;;;;;5.50;2.42;;;2.60;73.40;;;;;;4992340;28;20445;-69
2022/01/22 01:01:56;;;;;;;7.38;2.22;;;2.60;73.40;;;;;;4991904;28;20046;-68
2022/01/22 01:04:22;;;;;;;6.40;2.25;;;2.60;73.50;;;;;;4992350;28;20152;-68
2022/01/22 01:06:48;;;;;;;4.25;2.50;;;2.60;73.40;;;;;;4990804;28;20599;-69
2022/01/22 01:09:14;;;;;;;5.13;2.20;;;2.60;73.40;;;;;;4994313;28;20117;-68
2022/01/22 01:11:46;;;;;;;3.78;2.30;;;2.60;73.40;;;;;;4991745;28;20046;-68
2022/01/22 01:14:17;;;;;;;2.85;2.10;;;2.60;73.30;;;;;;4988928;28;20099;-68
2022/01/22 01:35:25;;;;;;;4.18;2.03;;;2.70;73.70;;;;;;4996784;28;20038;-68
2022/01/22 01:37:52;;;;;;;6.95;2.40;;;2.70;73.50;;;;;;4991640;28;20673;-68
2022/01/22 01:40:21;;;;;;;5.20;2.35;;;2.70;73.60;;;;;;4992045;28;20041;-68
2022/01/22 01:42:52;;;;;;;7.13;2.40;;;2.70;73.70;;;;;;4996946;28;20037;-68
2022/01/22 01:45:18;;;;;;;4.82;2.30;;;2.70;73.80;;;;;;4995694;28;20037;-67
2022/01/22 01:47:47;;;;;;;3.72;2.25;;;2.70;73.90;;;;;;4996296;28;20026;-67
2022/01/22 01:50:13;;;;;;;4.10;2.30;;;2.70;74.00;;;;;;4991854;28;20781;-68
2022/01/22 01:52:51;;;;;;;3.53;2.05;;;2.70;74.00;;;;;;4997245;28;20068;-68
2022/01/22 01:55:32;;;;;;;6.50;2.25;;;2.70;74.00;;;;;;4994384;28;20042;-69
2022/01/22 01:57:58;;;;;;;4.13;2.35;;;2.70;74.00;;;;;;4991852;28;20070;-68
2022/01/22 02:00:25;;;;;;;6.38;2.22;;;2.80;74.10;;;;;;4992422;28;20117;-68
2022/01/22 02:02:52;;;;;;;4.05;2.38;;;2.80;74.10;;;;;;4998375;28;20048;-68
2022/01/22 02:05:21;;;;;;;5.65;2.40;;;2.80;74.10;;;;;;4989163;28;20034;-67
2022/01/22 02:07:48;;;;;;;5.72;2.38;;;2.80;74.10;;;;;;4995760;28;20511;-69
2022/01/22 02:10:23;;;;;;;3.10;2.35;;;2.80;74.10;;;;;;4991731;28;20041;-69
2022/01/22 02:23:41;;;;;;;4.30;2.45;;;2.90;74.00;;;;;;4987559;28;20122;-68
2022/01/22 02:26:09;;;;;;;5.47;2.30;;;2.90;74.00;;;;;;4989028;28;20524;-68
2022/01/22 02:28:35;;;;;;;5.28;2.38;;;2.90;73.90;;;;;;4990977;28;20626;-65
2022/01/22 02:31:18;;;;;;;6.85;2.42;;;2.90;74.00;;;;;;4988581;28;20129;-68
2022/01/22 02:34:09;;;;;;;3.63;2.22;;;2.90;73.90;;;;;;4994682;28;20107;-68
2022/01/22 02:36:45;;;;;;;3.45;2.25;;;3.00;74.00;;;;;;4992154;28;20623;-68
2022/01/22 02:39:16;;;;;;;4.63;2.58;;;3.00;74.00;;;;;;4996699;28;20040;-67
2022/01/22 02:41:46;;;;;;;4.75;2.55;;;3.00;74.00;;;;;;4988995;28;20045;-68
2022/01/22 02:44:14;;;;;;;6.28;2.25;;;3.00;74.00;;;;;;4993080;28;20054;-68
2022/01/22 02:46:42;;;;;;;4.72;2.53;;;3.00;74.00;;;;;;4990603;28;20057;-66
2022/01/22 02:49:08;;;;;;;6.38;3.10;;;3.00;74.20;;;;;;4992407;28;20049;-69
2022/01/22 02:51:34;;;;;;;5.47;2.58;;;3.00;74.30;;;;;;4993803;28;20087;-68
2022/01/22 02:54:00;;;;;;;3.03;2.40;;;3.00;74.30;;;;;;4995348;28;20042;-68
2022/01/22 02:56:26;;;;;;;4.45;2.33;;;3.00;74.30;;;;;;4993510;28;20117;-68
2022/01/22 02:58:53;;;;;;;4.00;2.75;;;3.00;74.30;;;;;;4998279;28;20625;-67
2022/01/22 03:01:20;;;;;;;5.45;2.83;;;3.00;74.50;;;;;;4992130;28;20076;-68
2022/01/22 03:03:46;;;;;;;4.93;2.90;;;3.10;74.60;;;;;;4997907;28;20060;-68
2022/01/22 03:06:12;;;;;;;5.25;3.05;;;3.10;74.60;;;;;;4996643;28;20505;-69
2022/01/22 03:08:40;;;;;;;8.85;3.15;;;3.10;74.80;;;;;;4997992;28;20033;-68
2022/01/22 03:11:16;;;;;;;4.40;3.22;;;3.10;74.70;;;;;;4991174;28;20030;-68
2022/01/22 03:18:51;;;;;;;5.80;3.30;;;3.10;74.80;;;;;;4991548;28;20502;-68
2022/01/22 03:29:38;;;;;;;5.80;3.58;;;3.10;74.70;;;;;;4994404;28;20046;-69
2022/01/22 03:32:00;;;;;;;7.43;3.85;;;3.10;74.80;;;;;;4995934;28;20042;-68
2022/01/22 03:34:28;;;;;;;4.32;3.47;;;3.10;74.70;;;;;;4995354;28;20039;-68
2022/01/22 03:36:54;;;;;;;9.13;4.28;;;3.10;74.80;;;;;;4999390;28;20125;-68
2022/01/22 03:39:19;;;;;;;6.25;3.83;;;3.10;75.10;;;;;;5009974;28;20129;-68
2022/01/22 03:41:45;;;;;;;5.63;3.88;;;3.10;75.20;;;;;;4995135;28;20766;-68
2022/01/22 03:44:11;;;;;;;6.78;4.10;;;3.10;75.20;;;;;;4997151;28;20042;-67
2022/01/22 03:46:38;;;;;;;6.15;3.88;;;3.10;75.40;;;;;;4994457;28;20464;-67
2022/01/22 03:49:04;;;;;;;5.43;3.63;;;3.10;75.50;;;;;;4998926;28;20383;-67
2022/01/22 03:51:31;;;;;;;5.32;3.75;;;3.10;75.40;;;;;;4997822;28;20045;-68
2022/01/22 03:53:58;;;;;;;6.75;3.63;;;3.10;75.50;;;;;;4998637;28;21050;-68
2022/01/22 03:56:25;;;;;;;7.05;3.72;;;3.10;75.50;;;;;;4999128;28;20041;-68
2022/01/22 03:58:50;;;;;;;5.13;3.53;;;3.10;75.60;;;;;;5011536;28;20062;-68
2022/01/22 04:04:03;;;;;;;5.57;3.90;;;3.10;75.60;;;;;;4995125;28;20053;-68
2022/01/22 04:09:09;;;;;;;5.90;3.60;;;3.10;75.50;;;;;;4991749;28;20038;-69
2022/01/22 04:11:39;;;;;;;5.22;3.67;;;3.10;75.50;;;;;;4992666;28;20061;-68
2022/01/22 04:14:11;;;;;;;5.82;4.05;;;3.20;75.50;;;;;;4995890;28;20034;-68
2022/01/22 04:16:43;;;;;;;5.85;3.88;;;3.20;75.50;;;;;;4992154;28;20469;-68
2022/01/22 04:24:54;;;;;;;6.95;3.67;;;3.20;75.30;;;;;;4987668;28;20031;-69
2022/01/22 04:27:27;;;;;;;6.00;3.42;;;3.20;75.30;;;;;;4989222;28;20078;-69
2022/01/22 04:29:57;;;;;;;4.65;3.50;;;3.20;75.30;;;;;;4994357;28;20572;-68
2022/01/22 04:32:27;;;;;;;5.35;3.22;;;3.20;75.40;;;;;;4989487;28;20042;-68
2022/01/22 04:34:53;;;;;;;6.78;3.47;;;3.20;75.40;;;;;;4992181;28;20030;-69
2022/01/22 04:37:20;;;;;;;7.20;4.15;;;3.20;75.40;;;;;;4993187;28;20034;-68
2022/01/22 04:39:47;;;;;;;8.68;3.85;;;3.30;75.40;;;;;;4992118;28;20039;-68
2022/01/22 04:42:13;;;;;;;8.70;4.13;;;3.20;75.30;;;;;;4991146;28;20055;-69
2022/01/22 04:44:50;;;;;;;7.22;3.60;;;3.30;75.30;;;;;;4996979;28;20033;-69
2022/01/22 04:47:31;;;;;;;7.35;4.00;;;3.30;75.40;;;;;;4993864;28;20034;-69
2022/01/22 04:54:58;;;;;;;5.85;3.33;;;3.30;75.20;;;;;;4993746;28;20049;-68
2022/01/22 04:55:26;;;;;;;5.47;2.85;;;3.30;75.00;;;;;;4993374;28;20033;-68
2022/01/22 04:57:52;;;;;;;6.75;3.50;;;3.30;75.00;;;;;;4992867;28;20066;-68
2022/01/22 05:00:18;;;;;;;3.92;2.78;;;3.30;75.00;;;;;;4995841;28;20433;-69
2022/01/22 05:02:43;;;;;;;6.65;3.53;;;3.30;75.00;;;;;;4993697;28;20114;-68
2022/01/22 05:05:09;;;;;;;6.07;3.15;;;3.30;75.00;;;;;;4995792;28;20030;-68
2022/01/22 05:07:35;;;;;;;9.30;3.55;;;3.30;74.90;;;;;;4995933;28;20037;-69
2022/01/22 05:10:02;;;;;;;6.50;3.15;;;3.20;74.80;;;;;;4993018;28;20061;-68
2022/01/22 05:12:28;;;;;;;26.67;11.88;;;3.30;74.80;;;;;;4994488;28;20041;-68
2022/01/22 05:14:53;;;;;;;13.10;6.35;;;3.20;74.70;;;;;;4994155;28;20042;-68
2022/01/22 05:17:20;;;;;;;7.28;4.07;;;3.20;74.60;;;;;;4992179;28;20521;-69
2022/01/22 05:24:49;;;;;;;8.35;4.43;;;3.10;74.60;;;;;;4994589;28;20049;-68
2022/01/22 05:27:36;;;;;;;9.68;5.10;;;3.10;74.70;;;;;;4993196;28;20417;-68
2022/01/22 05:32:49;;;;;;;6.20;4.15;;;3.10;74.70;;;;;;4995318;28;20042;-69
2022/01/22 05:38:01;;;;;;;6.63;3.70;;;3.10;74.70;;;;;;4995294;28;20045;-68
2022/01/22 05:40:28;;;;;;;7.00;4.25;;;3.10;74.70;;;;;;4992156;28;20041;-68
2022/01/22 05:42:54;;;;;;;6.45;3.92;;;3.10;74.80;;;;;;4994074;28;20171;-68
2022/01/22 05:45:19;;;;;;;6.78;4.90;;;3.00;74.60;;;;;;5004670;28;20152;-68
2022/01/22 05:47:45;;;;;;;9.75;5.50;;;3.10;74.80;;;;;;4990159;28;20092;-68
2022/01/22 05:50:25;;;;;;;7.28;4.35;;;3.10;74.80;;;;;;4997347;28;20043;-68
2022/01/22 05:53:19;;;;;;;7.22;4.43;;;3.00;74.80;;;;;;4993427;28;20035;-68
2022/01/22 06:01:14;;;;;;;;;;;3.00;74.80;;;;;;4993952;28;20104;-68
2022/01/22 06:03:40;;;;;;;33.90;15.75;;;3.10;75.20;;;;;;4991491;28;20424;-66
2022/01/22 06:06:05;;;;;;;13.65;7.15;;;3.00;74.60;;;;;;4995442;28;20045;-68
2022/01/22 06:08:40;;;;;;;14.32;5.93;;;3.00;74.60;;;;;;4991207;28;20030;-69
2022/01/22 06:11:11;;;;;;;12.38;7.35;;;3.00;74.70;;;;;;4990486;28;20108;-68
2022/01/22 06:13:44;;;;;;;7.43;5.13;;;3.00;74.80;;;;;;4993352;28;20038;-69
2022/01/22 06:16:11;;;;;;;9.80;5.70;;;3.00;74.80;;;;;;4994177;28;20037;-68
2022/01/22 06:18:37;;;;;;;10.63;7.13;;;3.00;74.90;;;;;;4993674;28;20079;-67
2022/01/22 06:21:04;;;;;;;7.68;4.90;;;3.00;75.00;;;;;;4993040;28;20046;-68
2022/01/22 06:23:29;;;;;;;8.88;6.65;;;3.00;75.00;;;;;;4990245;28;20030;-69
2022/01/22 06:25:58;;;;;;;10.25;4.93;;;2.90;75.00;;;;;;4988860;28;20042;-68
2022/01/22 06:28:24;;;;;;;11.88;7.50;;;3.00;75.00;;;;;;4995335;28;20065;-69
2022/01/22 06:30:49;;;;;;;12.68;8.88;;;3.00;75.00;;;;;;4988164;28;20146;-68
2022/01/22 06:33:15;;;;;;;16.73;11.35;;;3.00;75.00;;;;;;4991278;28;20031;-68
2022/01/22 06:35:40;;;;;;;9.98;7.13;;;3.00;74.90;;;;;;4987664;28;22118;-68
2022/01/22 06:38:08;;;;;;;4.93;3.85;;;3.00;74.90;;;;;;4989399;28;20038;-69
2022/01/22 06:43:03;;;;;;;8.75;5.00;;;3.00;74.80;;;;;;4986854;28;21324;-69
2022/01/22 06:45:29;;;;;;;8.35;4.07;;;3.00;74.80;;;;;;4988468;28;20069;-67
2022/01/22 06:47:55;;;;;;;6.22;3.45;;;3.00;74.60;;;;;;4990039;28;20046;-68
2022/01/22 06:50:22;;;;;;;5.90;3.38;;;3.00;74.60;;;;;;4993424;28;20042;-68
2022/01/22 06:52:55;;;;;;;8.32;3.55;;;3.00;74.50;;;;;;4994216;28;20073;-68
2022/01/22 06:55:30;;;;;;;4.85;3.45;;;3.00;74.50;;;;;;4991544;28;20042;-69
2022/01/22 06:57:56;;;;;;;9.25;5.72;;;3.00;74.40;;;;;;4988851;28;20121;-68
2022/01/22 07:00:21;;;;;;;9.30;4.88;;;3.00;74.40;;;;;;4990985;28;20129;-67
2022/01/22 07:02:47;;;;;;;8.50;3.78;;;3.00;74.50;;;;;;4992729;28;20034;-68
2022/01/22 07:05:13;;;;;;;7.72;4.03;;;3.00;74.40;;;;;;4995075;28;20038;-68
2022/01/22 07:07:38;;;;;;;8.35;4.65;;;3.00;74.30;;;;;;4990557;28;20033;-68
2022/01/22 07:10:04;;;;;;;7.82;5.47;;;3.00;74.30;;;;;;4990310;28;20030;-68
2022/01/22 07:12:30;;;;;;;9.63;4.70;;;3.00;74.30;;;;;;4989972;28;20034;-68
2022/01/22 07:14:56;;;;;;;9.48;6.13;;;3.00;74.30;;;;;;4986250;28;20409;-68
2022/01/22 07:17:21;;;;;;;8.63;6.00;;;3.00;74.30;;;;;;4990990;28;20034;-69
2022/01/22 07:19:47;;;;;;;12.32;5.95;;;3.00;74.20;;;;;;4994956;28;20134;-68
2022/01/22 07:22:33;;;;;;;9.55;5.30;;;3.00;74.20;;;;;;4995473;28;20042;-68
2022/01/22 07:24:58;;;;;;;6.13;4.13;;;3.00;74.20;;;;;;4990885;28;20595;-68
2022/01/22 07:27:24;;;;;;;11.23;5.63;;;3.00;74.20;;;;;;4989811;28;20493;-68
2022/01/22 07:29:50;;;;;;;8.57;4.53;;;3.00;74.10;;;;;;4988541;28;20303;-68
2022/01/22 07:32:26;;;;;;;8.23;3.97;;;3.10;74.30;;;;;;4990799;28;20509;-68
2022/01/22 07:34:52;;;;;;;8.68;5.00;;;3.00;74.20;;;;;;4992456;28;20781;-68
2022/01/22 07:37:17;;;;;;;8.88;4.18;;;3.00;74.10;;;;;;4999212;28;20043;-69
2022/01/22 07:39:43;;;;;;;8.80;5.35;;;3.10;74.20;;;;;;4993964;28;20038;-69
2022/01/22 07:42:08;;;;;;;14.93;7.60;;;3.10;74.10;;;;;;4995337;28;20416;-68
2022/01/22 07:44:34;;;;;;;11.10;5.63;;;3.00;74.10;;;;;;4993916;28;20053;-69
2022/01/22 07:47:00;;;;;;;8.68;4.53;;;3.10;74.10;;;;;;4993568;28;20048;-68
2022/01/22 07:49:25;;;;;;;10.65;5.53;;;3.10;74.10;;;;;;4993786;28;20045;-69
2022/01/22 07:51:51;;;;;;;10.32;6.18;;;3.10;74.00;;;;;;4996517;28;20189;-69
2022/01/22 07:54:17;;;;;;;9.82;6.93;;;3.00;74.00;;;;;;4993437;28;20501;-68
2022/01/22 07:56:43;;;;;;;10.18;5.78;;;3.10;74.10;;;;;;4997570;28;20034;-68
2022/01/22 07:59:08;;;;;;;7.53;4.63;;;3.10;74.10;;;;;;4996423;28;20390;-68
2022/01/22 08:01:34;;;;;;;8.60;5.90;;;3.10;74.10;;;;;;4992856;28;20049;-68
2022/01/22 08:04:01;;;;;;;7.97;4.82;;;3.10;74.10;;;;;;4998135;28;21181;-68
2022/01/22 08:06:26;;;;;;;8.13;4.45;;;3.10;74.10;;;;;;4995532;28;20741;-69
2022/01/22 08:08:52;;;;;;;9.00;4.55;;;3.20;74.20;;;;;;4994443;28;20068;-68
2022/01/22 08:11:17;;;;;;;7.60;5.20;;;3.20;74.30;;;;;;4997037;28;20033;-68
2022/01/22 08:13:43;;;;;;;8.35;4.88;;;3.10;74.30;;;;;;5000159;28;20038;-67
2022/01/22 08:16:09;;;;;;;9.65;5.05;;;3.20;74.40;;;;;;4994588;28;20040;-69
2022/01/22 08:18:34;;;;;;;7.22;4.80;;;3.20;74.50;;;;;;4995725;28;20630;-67
2022/01/22 08:21:00;;;;;;;9.70;5.03;;;3.20;74.50;;;;;;4996212;28;20045;-68
2022/01/22 08:23:26;;;;;;;10.20;5.40;;;3.20;74.50;;;;;;4996887;28;20497;-68
2022/01/22 08:25:51;;;;;;;8.35;5.45;;;3.20;74.50;;;;;;4997818;28;20072;-68
2022/01/22 08:31:17;;;;;;;7.93;5.18;;;3.30;74.60;;;;;;4992452;28;20606;-69
2022/01/22 08:36:27;;;;;;;12.70;7.53;;;3.30;74.60;;;;;;4993929;28;20043;-69
2022/01/22 08:38:52;;;;;;;9.55;5.90;;;3.30;74.60;;;;;;4981330;28;20034;-69
2022/01/22 08:41:18;;;;;;;10.88;6.15;;;3.30;74.50;;;;;;4995142;28;20038;-68
2022/01/22 08:43:44;;;;;;;12.35;6.78;;;3.20;74.60;;;;;;4996177;28;20030;-68
2022/01/22 08:46:09;;;;;;;10.77;5.80;;;3.30;74.70;;;;;;4996600;28;20041;-68
2022/01/22 08:48:35;;;;;;;11.13;5.60;;;3.30;74.70;;;;;;4996569;28;20038;-69
2022/01/22 08:51:01;;;;;;;9.30;5.70;;;3.30;74.70;;;;;;4986479;28;20035;-67
2022/01/22 08:53:26;;;;;;;14.82;7.85;;;3.30;74.70;;;;;;4993175;28;20035;-68
2022/01/22 08:55:52;;;;;;;13.93;8.40;;;3.30;74.80;;;;;;4985931;28;20049;-68
2022/01/22 08:58:18;;;;;;;10.20;6.72;;;3.30;74.80;;;;;;4987879;28;20029;-69
2022/01/22 09:00:45;;;;;;;10.40;7.38;;;3.30;75.00;;;;;;4989312;28;20042;-69
2022/01/22 09:03:13;;;;;;;9.38;5.97;;;3.30;75.00;;;;;;4990099;28;20086;-68
2022/01/22 09:05:39;;;;;;;11.13;6.57;;;3.30;74.90;;;;;;4992600;28;20485;-68
2022/01/22 09:08:05;;;;;;;11.00;6.03;;;3.30;74.90;;;;;;4993004;28;20042;-69
2022/01/22 09:10:31;;;;;;;20.60;6.38;;;3.30;74.90;;;;;;4996519;28;20452;-68
2022/01/22 09:12:56;;;;;;;16.85;7.82;;;3.30;75.00;;;;;;4992155;28;20038;-69
2022/01/22 09:15:22;;;;;;;17.38;7.75;;;3.30;75.10;;;;;;4993837;28;21955;-69
2022/01/22 09:17:48;;;;;;;12.05;8.15;;;3.30;75.20;;;;;;4985641;28;20136;-68
2022/01/22 09:20:30;;;;;;;19.75;10.70;;;3.30;75.20;;;;;;4988180;28;20607;-69
2022/01/22 09:22:56;;;;;;;41.78;17.95;;;3.30;75.30;;;;;;4989460;28;20042;-69
2022/01/22 09:25:21;;;;;;;34.28;17.38;;;3.40;75.40;;;;;;4996135;28;20095;-69
2022/01/22 09:27:47;;;;;;;16.48;8.48;;;3.40;75.40;;;;;;4994834;28;20160;-67
2022/01/22 09:30:13;;;;;;;18.40;8.65;;;3.50;75.50;;;;;;4988393;28;20045;-69
2022/01/22 09:32:38;;;;;;;24.50;12.35;;;3.40;75.50;;;;;;4982702;28;20037;-69
2022/01/22 09:35:04;;;;;;;15.43;8.70;;;3.40;75.60;;;;;;4984323;28;20514;-69
2022/01/22 09:37:31;;;;;;;15.38;8.95;;;3.40;75.70;;;;;;4985095;28;20125;-69
2022/01/22 09:39:57;;;;;;;13.00;7.68;;;3.40;75.60;;;;;;4989282;28;20037;-69
2022/01/22 09:42:23;;;;;;;12.98;7.15;;;3.50;75.70;;;;;;4988838;28;20041;-69
2022/01/22 09:44:48;;;;;;;18.80;9.13;;;3.50;75.70;;;;;;4986731;28;20045;-69
2022/01/22 09:47:20;;;;;;;17.83;9.35;;;3.50;75.70;;;;;;4986995;28;20057;-68
2022/01/22 09:49:46;;;;;;;16.27;9.00;;;3.50;75.90;;;;;;4997343;28;20038;-69
2022/01/22 09:52:13;;;;;;;17.85;10.30;;;3.50;75.90;;;;;;4991469;28;20109;-69
2022/01/22 09:54:39;;;;;;;21.20;13.10;;;3.60;76.00;;;;;;4988921;28;20034;-69
2022/01/22 09:57:06;;;;;;;17.58;8.98;;;3.60;76.00;;;;;;4987597;28;20092;-69
2022/01/22 09:59:31;;;;;;;15.52;8.30;;;3.60;76.00;;;;;;4988013;28;20062;-68
2022/01/22 10:02:12;;;;;;;19.10;10.60;;;3.60;76.20;;;;;;4986271;28;20497;-70
2022/01/22 10:04:39;;;;;;;17.17;9.63;;;3.60;76.60;;;;;;4984124;28;20038;-70
2022/01/22 10:07:13;;;;;;;14.55;8.70;;;3.60;76.40;;;;;;4991604;28;20038;-69
2022/01/22 10:10:01;;;;;;;14.23;9.23;;;3.60;76.30;;;;;;4991366;28;20035;-69
2022/01/22 10:12:29;;;;;;;14.73;7.38;;;3.60;76.60;;;;;;4988997;28;20340;-68
2022/01/22 10:15:17;;;;;;;13.13;8.00;;;3.50;76.20;;;;;;4994606;28;20080;-70
2022/01/22 10:17:49;;;;;;;13.70;6.70;;;3.60;76.50;;;;;;4988622;28;20121;-68
2022/01/22 10:20:24;;;;;;;13.90;8.02;;;3.50;76.40;;;;;;4994625;28;20042;-69
2022/01/22 10:22:50;;;;;;;14.10;7.43;;;3.50;76.50;;;;;;4994093;28;20814;-69
2022/01/22 10:25:38;;;;;;;13.35;7.35;;;3.50;76.40;;;;;;4996157;28;20034;-68
2022/01/22 10:28:16;;;;;;;12.88;7.65;;;3.50;77.00;;;;;;4997057;28;20038;-68
2022/01/22 10:30:44;;;;;;;11.82;6.95;;;3.60;76.80;;;;;;4994058;28;20117;-69
2022/01/22 10:35:46;;;;;;;12.98;8.00;;;3.60;76.40;;;;;;4995730;28;20061;-69
2022/01/22 10:38:12;;;;;;;12.35;7.82;;;3.60;76.50;;;;;;4995936;28;20118;-69
2022/01/22 10:40:39;;;;;;;14.30;7.70;;;3.60;76.50;;;;;;4994242;28;20053;-70
2022/01/22 10:43:25;;;;;;;11.43;6.60;;;3.60;76.60;;;;;;4995220;28;20708;-67
2022/01/22 10:45:59;;;;;;;11.60;7.45;;;3.60;76.80;;;;;;4995243;28;20544;-68
2022/01/22 10:48:25;;;;;;;14.73;7.47;;;3.60;76.70;;;;;;4995185;28;20412;-68
2022/01/22 10:51:06;;;;;;;13.18;7.78;;;3.60;76.60;;;;;;4991577;28;20034;-69
2022/01/22 10:53:41;;;;;;;13.70;7.47;;;3.60;77.00;;;;;;4994800;28;20089;-69
2022/01/22 10:56:08;;;;;;;12.63;7.05;;;3.70;76.80;;;;;;4997597;28;20065;-68
2022/01/22 10:58:34;;;;;;;13.50;7.40;;;3.70;77.60;;;;;;4997058;28;20054;-70
2022/01/22 11:01:04;;;;;;;11.73;7.47;;;3.70;76.70;;;;;;4996659;28;20065;-68
2022/01/22 11:03:31;;;;;;;11.52;7.50;;;3.70;76.90;;;;;;4998677;28;20029;-68
2022/01/22 11:05:59;;;;;;;12.27;7.18;;;3.70;76.70;;;;;;4997531;28;20030;-68
2022/01/22 11:08:28;;;;;;;14.57;7.55;;;3.80;76.70;;;;;;4996025;28;20555;-69
2022/01/22 11:10:54;;;;;;;12.20;6.97;;;3.80;76.80;;;;;;4996434;28;20049;-69
2022/01/22 11:13:20;;;;;;;12.30;6.70;;;3.80;76.70;;;;;;5002663;28;20640;-68
2022/01/22 11:15:48;;;;;;;14.45;7.10;;;3.80;76.60;;;;;;5002264;28;20035;-69
2022/01/22 11:18:17;;;;;;;12.25;6.97;;;3.80;76.60;;;;;;5002756;28;20104;-69
2022/01/22 11:20:43;;;;;;;15.10;7.13;;;3.80;76.40;;;;;;5000606;28;20058;-69
2022/01/22 11:23:09;;;;;;;14.80;7.15;;;3.90;76.40;;;;;;5001900;28;20143;-68
2022/01/22 11:25:35;;;;;;;16.05;7.97;;;3.90;76.40;;;;;;4999033;28;20038;-68
2022/01/22 11:28:02;;;;;;;11.93;7.05;;;3.90;76.50;;;;;;4997025;28;20042;-68
2022/01/22 11:30:29;;;;;;;12.20;8.02;;;3.90;76.40;;;;;;4998842;28;20026;-68
2022/01/22 11:33:09;;;;;;;14.25;7.65;;;3.90;76.40;;;;;;5000315;28;20122;-69
2022/01/22 11:35:55;;;;;;;14.05;8.02;;;3.90;76.50;;;;;;4998541;28;20026;-68
2022/01/22 11:38:39;;;;;;;16.08;8.52;;;3.90;76.60;;;;;;5000739;28;20042;-69
2022/01/22 11:41:20;;;;;;;14.70;8.82;;;4.00;77.40;;;;;;5002440;28;20493;-68
2022/01/22 11:44:21;;;;;;;17.63;8.68;;;4.00;76.40;;;;;;5000651;28;20524;-68
2022/01/22 11:46:59;;;;;;;22.15;10.77;;;4.00;76.20;;;;;;4997491;28;20493;-68
2022/01/22 11:49:31;;;;;;;16.88;9.40;;;4.00;76.10;;;;;;5002170;28;20034;-68
2022/01/22 11:52:12;;;;;;;14.55;7.60;;;4.10;76.20;;;;;;4998533;28;20037;-67
2022/01/22 11:54:59;;;;;;;16.13;8.82;;;4.00;76.20;;;;;;4999332;28;20048;-68
2022/01/22 11:57:27;;;;;;;13.32;7.75;;;4.10;76.20;;;;;;5000713;28;20042;-68
2022/01/22 12:00:26;;;;;;;14.45;8.45;;;4.10;76.10;;;;;;4998064;28;20045;-68
2022/01/22 12:03:07;;;;;;;14.30;7.57;;;4.10;76.50;;;;;;4997701;28;20038;-68
2022/01/22 12:05:34;;;;;;;13.25;7.80;;;4.10;76.30;;;;;;5014292;28;20121;-69
2022/01/22 12:08:01;;;;;;;14.60;7.40;;;4.10;77.10;;;;;;5001214;28;20034;-68
2022/01/22 12:10:40;;;;;;;12.07;7.20;;;4.10;76.20;;;;;;4996038;28;20041;-68
2022/01/22 12:16:06;;;;;;;13.45;7.10;;;4.10;76.40;;;;;;4999774;28;20037;-68
2022/01/22 12:18:42;;;;;;;16.77;9.00;;;4.20;76.30;;;;;;4999866;28;20038;-68
2022/01/22 12:21:37;;;;;;;16.15;7.53;;;4.20;76.30;;;;;;5000012;28;20046;-68
2022/01/22 12:24:14;;;;;;;15.98;7.55;;;4.20;76.40;;;;;;5000052;28;20031;-67
2022/01/22 12:26:40;;;;;;;14.07;7.93;;;4.20;76.20;;;;;;4994861;28;20050;-67
2022/01/22 12:29:30;;;;;;;13.05;7.82;;;4.30;76.10;;;;;;4995173;28;20325;-67
2022/01/22 12:32:15;;;;;;;11.95;7.07;;;4.30;76.20;;;;;;4996097;28;20058;-67
2022/01/22 12:35:05;;;;;;;14.90;7.30;;;4.20;76.20;;;;;;4999095;28;20034;-67
2022/01/22 12:37:31;;;;;;;10.40;6.93;;;4.30;76.20;;;;;;4999667;28;20304;-67
2022/01/22 12:39:58;;;;;;;12.57;7.35;;;4.20;75.90;;;;;;4998354;28;20036;-67
2022/01/22 12:42:52;;;;;;;12.55;7.28;;;4.30;76.00;;;;;;5000012;28;20040;-67
2022/01/22 12:45:21;;;;;;;14.75;7.60;;;4.30;76.30;;;;;;4999249;28;20037;-67
2022/01/22 12:47:48;;;;;;;15.07;8.05;;;4.30;76.10;;;;;;4998473;28;20038;-67
2022/01/22 12:50:14;;;;;;;14.40;8.40;;;4.30;76.20;;;;;;4997916;28;20035;-67
2022/01/22 12:52:45;;;;;;;14.10;8.02;;;4.30;76.20;;;;;;4998073;28;20034;-67
2022/01/22 12:55:16;;;;;;;13.27;8.02;;;4.40;76.20;;;;;;4999307;28;20555;-67
2022/01/22 12:57:43;;;;;;;13.30;7.75;;;4.40;76.30;;;;;;4999358;28;21034;-67
2022/01/22 13:00:14;;;;;;;13.05;8.20;;;4.40;76.20;;;;;;4997225;28;20125;-67
2022/01/22 13:02:45;;;;;;;16.65;8.07;;;4.40;76.20;;;;;;4997526;28;20072;-67
2022/01/22 13:05:14;;;;;;;14.15;7.97;;;4.50;76.30;;;;;;4999364;28;20091;-67
2022/01/22 13:07:54;;;;;;;14.50;8.10;;;4.50;76.20;;;;;;4998260;28;20040;-67
2022/01/22 13:10:25;;;;;;;12.65;7.53;;;4.50;76.20;;;;;;4999078;28;20524;-67
2022/01/22 13:12:53;;;;;;;13.30;7.40;;;4.50;75.90;;;;;;5010371;28;20383;-68
2022/01/22 13:15:19;;;;;;;14.18;7.70;;;4.60;75.90;;;;;;4997941;28;20044;-67
2022/01/22 13:17:51;;;;;;;17.05;8.73;;;4.60;75.80;;;;;;4997775;28;20022;-67
2022/01/22 13:20:23;;;;;;;19.23;8.10;;;4.60;75.80;;;;;;4997067;28;20100;-67
2022/01/22 13:22:50;;;;;;;17.25;8.57;;;4.60;75.80;;;;;;4999440;28;20038;-67
2022/01/22 13:25:16;;;;;;;16.08;8.82;;;4.60;75.70;;;;;;4998669;28;20156;-68
2022/01/22 13:27:57;;;;;;;18.38;8.40;;;4.60;75.60;;;;;;4998304;28;20034;-68
2022/01/22 13:30:30;;;;;;;14.15;8.07;;;4.60;75.70;;;;;;4994711;28;22355;-67
2022/01/22 13:33:01;;;;;;;16.02;8.77;;;4.70;75.60;;;;;;4997792;28;20434;-66
2022/01/22 13:41:00;;;;;;;14.82;9.18;;;4.70;75.30;;;;;;4988894;28;20030;-67
2022/01/22 13:49:00;;;;;;;15.82;8.82;;;4.70;75.40;;;;;;4997196;28;20467;-67
2022/01/22 13:51:27;;;;;;;13.57;8.57;;;4.80;75.40;;;;;;4997114;28;20509;-68
2022/01/22 13:53:57;;;;;;;15.05;8.80;;;4.80;75.50;;;;;;4997585;28;20043;-67
2022/01/22 13:56:46;;;;;;;15.25;8.07;;;4.80;75.40;;;;;;4996675;28;20037;-68
2022/01/22 13:59:18;;;;;;;14.82;8.48;;;4.80;75.30;;;;;;4996687;28;20034;-67
2022/01/22 14:02:08;;;;;;;12.57;7.10;;;4.80;75.20;;;;;;4997188;28;20030;-68
2022/01/22 14:04:50;;;;;;;9.65;6.68;;;4.80;75.20;;;;;;4998297;28;20533;-68
2022/01/22 14:07:30;;;;;;;10.15;6.63;;;4.80;75.10;;;;;;4996933;28;20127;-67
2022/01/22 14:10:12;;;;;;;19.80;10.38;;;4.80;74.90;;;;;;5009267;28;20034;-68
2022/01/22 14:12:42;;;;;;;17.60;10.15;;;4.80;74.80;;;;;;4995695;28;20049;-68
2022/01/22 14:15:14;;;;;;;22.25;10.45;;;4.70;74.80;;;;;;4996358;28;20125;-67
2022/01/22 14:18:19;;;;;;;23.23;11.32;;;4.70;74.80;;;;;;5006059;28;20038;-68
2022/01/22 14:20:52;;;;;;;18.40;9.68;;;4.70;74.80;;;;;;4993262;28;20052;-67
2022/01/22 14:23:23;;;;;;;18.60;9.05;;;4.60;74.60;;;;;;4998212;28;20397;-68
2022/01/22 14:25:54;;;;;;;27.38;11.93;;;4.50;74.80;;;;;;4998199;28;20077;-68
2022/01/22 14:28:22;;;;;;;28.38;14.63;;;4.50;74.90;;;;;;4995713;28;20404;-67
2022/01/22 14:30:48;;;;;;;16.52;10.20;;;4.50;75.00;;;;;;4995255;28;20047;-67
2022/01/22 14:33:16;;;;;;;22.65;14.00;;;4.40;75.00;;;;;;4996275;28;20400;-67
2022/01/22 14:35:45;;;;;;;22.27;11.82;;;4.40;75.20;;;;;;4995894;28;20056;-67
2022/01/22 14:38:24;;;;;;;28.88;15.52;;;4.40;75.20;;;;;;4996357;28;20038;-67
2022/01/22 14:44:26;;;;;;;19.27;11.15;;;4.40;75.50;;;;;;4994976;28;20041;-67
2022/01/22 14:47:03;;;;;;;31.27;16.42;;;4.30;75.30;;;;;;5000453;28;20030;-67